sensor_id;sensor_type;location;lat;lon;timestamp;temperature;humidity
64918;HTU21D;52176;44.858;38.372;2023-03-01T00:01:13;4.84;77.26
64918;HTU21D;52176;44.858;38.372;2023-03-01T00:03:39;4.86;77.21
64918;HTU21D;52176;44.858;38.372;2023-03-01T00:06:06;4.86;77.23
64918;HTU21D;52176;44.858;38.372;2023-03-01T00:08:33;4.86;77.22
64918;HTU21D;52176;44.858;38.372;2023-03-01T00:11:05;4.87;77.24
64918;HTU21D;52176;44.858;38.372;2023-03-01T00:13:32;4.88;77.20
64918;HTU21D;52176;44.858;38.372;2023-03-01T00:15:58;4.88;77.19
64918;HTU21D;52176;44.858;38.372;2023-03-01T00:18:24;4.89;77.15
64918;HTU21D;52176;44.858;38.372;2023-03-01T00:20:54;4.89;77.23
64918;HTU21D;52176;44.858;38.372;2023-03-01T00:23:22;4.89;77.18
64918;HTU21D;52176;44.858;38.372;2023-03-01T00:25:48;4.89;77.17
64918;HTU21D;52176;44.858;38.372;2023-03-01T00:28:15;4.91;77.14
64918;HTU21D;52176;44.858;38.372;2023-03-01T00:30:41;4.91;77.15
64918;HTU21D;52176;44.858;38.372;2023-03-01T00:33:07;4.93;77.15
64918;HTU21D;52176;44.858;38.372;2023-03-01T00:35:33;4.92;77.14
64918;HTU21D;52176;44.858;38.372;2023-03-01T00:38:00;4.91;77.14
64918;HTU21D;52176;44.858;38.372;2023-03-01T00:40:27;4.90;77.16
64918;HTU21D;52176;44.858;38.372;2023-03-01T00:42:54;4.89;77.18
64918;HTU21D;52176;44.858;38.372;2023-03-01T00:45:21;4.88;77.17
64918;HTU21D;52176;44.858;38.372;2023-03-01T00:47:48;4.89;77.18
64918;HTU21D;52176;44.858;38.372;2023-03-01T00:50:15;4.89;77.19
64918;HTU21D;52176;44.858;38.372;2023-03-01T00:52:41;4.89;77.17
64918;HTU21D;52176;44.858;38.372;2023-03-01T00:55:07;4.89;77.20
64918;HTU21D;52176;44.858;38.372;2023-03-01T00:57:33;4.88;77.20
64918;HTU21D;52176;44.858;38.372;2023-03-01T01:00:00;4.84;77.24
64918;HTU21D;52176;44.858;38.372;2023-03-01T01:02:26;4.83;77.24
64918;HTU21D;52176;44.858;38.372;2023-03-01T01:04:52;4.84;77.27
64918;HTU21D;52176;44.858;38.372;2023-03-01T01:07:18;4.82;77.26
64918;HTU21D;52176;44.858;38.372;2023-03-01T01:09:46;4.83;77.24
64918;HTU21D;52176;44.858;38.372;2023-03-01T01:12:12;4.82;77.26
64918;HTU21D;52176;44.858;38.372;2023-03-01T01:14:39;4.83;77.20
64918;HTU21D;52176;44.858;38.372;2023-03-01T01:17:05;4.82;77.21
64918;HTU21D;52176;44.858;38.372;2023-03-01T01:19:31;4.82;77.21
64918;HTU21D;52176;44.858;38.372;2023-03-01T01:21:57;4.82;77.21
64918;HTU21D;52176;44.858;38.372;2023-03-01T01:24:23;4.82;77.20
64918;HTU21D;52176;44.858;38.372;2023-03-01T01:26:49;4.83;77.18
64918;HTU21D;52176;44.858;38.372;2023-03-01T01:29:16;4.83;77.15
64918;HTU21D;52176;44.858;38.372;2023-03-01T01:31:42;4.83;77.15
64918;HTU21D;52176;44.858;38.372;2023-03-01T01:34:14;4.81;77.14
64918;HTU21D;52176;44.858;38.372;2023-03-01T01:36:41;4.78;77.09
64918;HTU21D;52176;44.858;38.372;2023-03-01T01:39:07;4.78;77.14
64918;HTU21D;52176;44.858;38.372;2023-03-01T01:41:33;4.77;77.16
64918;HTU21D;52176;44.858;38.372;2023-03-01T01:44:20;4.78;77.16
64918;HTU21D;52176;44.858;38.372;2023-03-01T01:47:08;4.78;77.08
64918;HTU21D;52176;44.858;38.372;2023-03-01T01:49:57;4.78;76.99
64918;HTU21D;52176;44.858;38.372;2023-03-01T01:52:33;4.79;77.02
64918;HTU21D;52176;44.858;38.372;2023-03-01T01:55:08;4.79;76.99
64918;HTU21D;52176;44.858;38.372;2023-03-01T01:57:40;4.80;76.98
64918;HTU21D;52176;44.858;38.372;2023-03-01T02:00:10;4.79;76.97
64918;HTU21D;52176;44.858;38.372;2023-03-01T02:02:41;4.79;76.95
64918;HTU21D;52176;44.858;38.372;2023-03-01T02:05:17;4.78;76.93
64918;HTU21D;52176;44.858;38.372;2023-03-01T02:07:47;4.75;76.95
64918;HTU21D;52176;44.858;38.372;2023-03-01T02:10:20;4.73;76.93
64918;HTU21D;52176;44.858;38.372;2023-03-01T02:12:46;4.69;76.94
64918;HTU21D;52176;44.858;38.372;2023-03-01T02:15:12;4.66;76.99
64918;HTU21D;52176;44.858;38.372;2023-03-01T02:17:38;4.62;77.02
64918;HTU21D;52176;44.858;38.372;2023-03-01T02:20:20;4.59;77.10
64918;HTU21D;52176;44.858;38.372;2023-03-01T02:22:48;4.56;76.93
64918;HTU21D;52176;44.858;38.372;2023-03-01T02:30:25;4.37;76.96
64918;HTU21D;52176;44.858;38.372;2023-03-01T02:32:53;4.31;77.07
64918;HTU21D;52176;44.858;38.372;2023-03-01T02:35:19;4.26;77.09
64918;HTU21D;52176;44.858;38.372;2023-03-01T02:37:46;4.18;77.18
64918;HTU21D;52176;44.858;38.372;2023-03-01T02:40:17;4.10;77.26
64918;HTU21D;52176;44.858;38.372;2023-03-01T02:43:04;4.05;77.26
64918;HTU21D;52176;44.858;38.372;2023-03-01T02:45:32;3.99;77.29
64918;HTU21D;52176;44.858;38.372;2023-03-01T02:47:58;3.95;77.33
64918;HTU21D;52176;44.858;38.372;2023-03-01T02:53:23;3.83;77.37
64918;HTU21D;52176;44.858;38.372;2023-03-01T02:55:53;3.78;77.37
64918;HTU21D;52176;44.858;38.372;2023-03-01T02:58:20;3.73;77.44
64918;HTU21D;52176;44.858;38.372;2023-03-01T03:00:46;3.69;77.50
64918;HTU21D;52176;44.858;38.372;2023-03-01T03:03:17;3.64;77.55
64918;HTU21D;52176;44.858;38.372;2023-03-01T03:05:44;3.59;77.53
64918;HTU21D;52176;44.858;38.372;2023-03-01T03:08:10;3.55;77.59
64918;HTU21D;52176;44.858;38.372;2023-03-01T03:10:39;3.50;77.65
64918;HTU21D;52176;44.858;38.372;2023-03-01T03:13:11;3.45;77.69
64918;HTU21D;52176;44.858;38.372;2023-03-01T03:15:39;3.43;77.72
64918;HTU21D;52176;44.858;38.372;2023-03-01T03:18:09;3.40;77.82
64918;HTU21D;52176;44.858;38.372;2023-03-01T03:20:36;3.36;77.84
64918;HTU21D;52176;44.858;38.372;2023-03-01T03:23:02;3.32;77.88
64918;HTU21D;52176;44.858;38.372;2023-03-01T03:25:28;3.30;77.95
64918;HTU21D;52176;44.858;38.372;2023-03-01T03:27:55;3.29;77.95
64918;HTU21D;52176;44.858;38.372;2023-03-01T03:30:30;3.26;78.00
64918;HTU21D;52176;44.858;38.372;2023-03-01T03:32:57;3.25;77.98
64918;HTU21D;52176;44.858;38.372;2023-03-01T03:35:30;3.25;78.03
64918;HTU21D;52176;44.858;38.372;2023-03-01T03:37:58;3.23;78.01
64918;HTU21D;52176;44.858;38.372;2023-03-01T03:40:36;3.19;78.04
64918;HTU21D;52176;44.858;38.372;2023-03-01T03:43:04;3.18;78.05
64918;HTU21D;52176;44.858;38.372;2023-03-01T03:45:30;3.16;78.06
64918;HTU21D;52176;44.858;38.372;2023-03-01T03:48:03;3.15;78.10
64918;HTU21D;52176;44.858;38.372;2023-03-01T03:50:30;3.15;78.08
64918;HTU21D;52176;44.858;38.372;2023-03-01T03:52:56;3.13;78.11
64918;HTU21D;52176;44.858;38.372;2023-03-01T03:55:22;3.12;78.08
64918;HTU21D;52176;44.858;38.372;2023-03-01T03:57:53;3.10;78.11
64918;HTU21D;52176;44.858;38.372;2023-03-01T04:00:21;3.06;78.16
64918;HTU21D;52176;44.858;38.372;2023-03-01T04:02:50;3.04;78.17
64918;HTU21D;52176;44.858;38.372;2023-03-01T04:05:18;3.04;78.25
64918;HTU21D;52176;44.858;38.372;2023-03-01T04:07:45;3.03;78.28
64918;HTU21D;52176;44.858;38.372;2023-03-01T04:10:16;3.02;78.30
64918;HTU21D;52176;44.858;38.372;2023-03-01T04:12:42;3.00;78.29
64918;HTU21D;52176;44.858;38.372;2023-03-01T04:15:09;2.98;78.34
64918;HTU21D;52176;44.858;38.372;2023-03-01T04:20:05;2.97;78.34
64918;HTU21D;52176;44.858;38.372;2023-03-01T04:22:32;2.96;78.35
64918;HTU21D;52176;44.858;38.372;2023-03-01T04:24:59;2.96;78.39
64918;HTU21D;52176;44.858;38.372;2023-03-01T04:27:34;2.95;78.36
64918;HTU21D;52176;44.858;38.372;2023-03-01T04:30:02;2.94;78.40
64918;HTU21D;52176;44.858;38.372;2023-03-01T04:32:28;2.93;78.43
64918;HTU21D;52176;44.858;38.372;2023-03-01T04:34:54;2.96;78.43
64918;HTU21D;52176;44.858;38.372;2023-03-01T04:37:20;2.95;78.43
64918;HTU21D;52176;44.858;38.372;2023-03-01T04:39:46;2.97;78.46
64918;HTU21D;52176;44.858;38.372;2023-03-01T04:42:13;2.97;78.47
64918;HTU21D;52176;44.858;38.372;2023-03-01T04:44:39;3.00;78.50
64918;HTU21D;52176;44.858;38.372;2023-03-01T04:47:04;3.01;78.43
64918;HTU21D;52176;44.858;38.372;2023-03-01T04:49:30;3.05;78.43
64918;HTU21D;52176;44.858;38.372;2023-03-01T04:51:56;3.11;78.44
64918;HTU21D;52176;44.858;38.372;2023-03-01T04:54:25;3.13;78.42
64918;HTU21D;52176;44.858;38.372;2023-03-01T04:56:51;3.20;78.40
64918;HTU21D;52176;44.858;38.372;2023-03-01T04:59:17;3.23;78.43
64918;HTU21D;52176;44.858;38.372;2023-03-01T05:01:43;3.27;78.38
64918;HTU21D;52176;44.858;38.372;2023-03-01T05:04:08;3.29;78.40
64918;HTU21D;52176;44.858;38.372;2023-03-01T05:06:38;3.34;78.37
64918;HTU21D;52176;44.858;38.372;2023-03-01T05:09:05;3.41;78.36
64918;HTU21D;52176;44.858;38.372;2023-03-01T05:11:30;3.45;78.40
64918;HTU21D;52176;44.858;38.372;2023-03-01T05:14:01;3.49;78.34
64918;HTU21D;52176;44.858;38.372;2023-03-01T05:16:27;3.54;78.31
64918;HTU21D;52176;44.858;38.372;2023-03-01T05:18:53;3.59;78.26
64918;HTU21D;52176;44.858;38.372;2023-03-01T05:21:20;3.63;78.28
64918;HTU21D;52176;44.858;38.372;2023-03-01T05:23:46;3.69;78.21
64918;HTU21D;52176;44.858;38.372;2023-03-01T05:26:12;3.74;78.16
64918;HTU21D;52176;44.858;38.372;2023-03-01T05:28:38;3.80;78.10
64918;HTU21D;52176;44.858;38.372;2023-03-01T05:31:05;3.89;78.05
64918;HTU21D;52176;44.858;38.372;2023-03-01T05:33:38;3.94;78.01
64918;HTU21D;52176;44.858;38.372;2023-03-01T05:36:04;4.01;77.94
64918;HTU21D;52176;44.858;38.372;2023-03-01T05:38:30;4.05;77.89
64918;HTU21D;52176;44.858;38.372;2023-03-01T05:40:56;4.12;77.87
64918;HTU21D;52176;44.858;38.372;2023-03-01T05:43:22;4.18;77.81
64918;HTU21D;52176;44.858;38.372;2023-03-01T05:45:48;4.23;77.76
64918;HTU21D;52176;44.858;38.372;2023-03-01T05:48:14;4.32;77.69
64918;HTU21D;52176;44.858;38.372;2023-03-01T05:50:41;4.41;77.61
64918;HTU21D;52176;44.858;38.372;2023-03-01T05:53:14;4.50;77.54
64918;HTU21D;52176;44.858;38.372;2023-03-01T05:55:40;4.58;77.44
64918;HTU21D;52176;44.858;38.372;2023-03-01T05:58:07;4.64;77.34
64918;HTU21D;52176;44.858;38.372;2023-03-01T06:00:33;4.69;77.28
64918;HTU21D;52176;44.858;38.372;2023-03-01T06:02:59;4.77;77.21
64918;HTU21D;52176;44.858;38.372;2023-03-01T06:05:25;4.83;77.11
64918;HTU21D;52176;44.858;38.372;2023-03-01T06:07:51;4.91;77.06
64918;HTU21D;52176;44.858;38.372;2023-03-01T06:10:18;4.96;77.04
64918;HTU21D;52176;44.858;38.372;2023-03-01T06:12:45;5.03;77.01
64918;HTU21D;52176;44.858;38.372;2023-03-01T06:15:11;5.12;76.92
64918;HTU21D;52176;44.858;38.372;2023-03-01T06:17:38;5.21;76.85
64918;HTU21D;52176;44.858;38.372;2023-03-01T06:20:14;5.32;76.73
64918;HTU21D;52176;44.858;38.372;2023-03-01T06:22:40;5.43;76.68
64918;HTU21D;52176;44.858;38.372;2023-03-01T06:25:07;5.52;76.58
64918;HTU21D;52176;44.858;38.372;2023-03-01T06:27:33;5.59;76.52
64918;HTU21D;52176;44.858;38.372;2023-03-01T06:29:59;5.66;76.41
64918;HTU21D;52176;44.858;38.372;2023-03-01T06:32:24;5.76;76.31
64918;HTU21D;52176;44.858;38.372;2023-03-01T06:34:50;5.82;76.18
64918;HTU21D;52176;44.858;38.372;2023-03-01T06:37:16;5.83;76.08
64918;HTU21D;52176;44.858;38.372;2023-03-01T06:39:42;5.82;76.11
64918;HTU21D;52176;44.858;38.372;2023-03-01T06:42:08;5.82;76.09
64918;HTU21D;52176;44.858;38.372;2023-03-01T06:44:36;5.83;76.04
64918;HTU21D;52176;44.858;38.372;2023-03-01T06:47:03;5.85;76.02
64918;HTU21D;52176;44.858;38.372;2023-03-01T06:49:29;5.86;75.95
64918;HTU21D;52176;44.858;38.372;2023-03-01T06:51:56;5.89;75.89
64918;HTU21D;52176;44.858;38.372;2023-03-01T06:54:22;5.96;75.89
64918;HTU21D;52176;44.858;38.372;2023-03-01T06:56:49;6.08;75.76
64918;HTU21D;52176;44.858;38.372;2023-03-01T06:59:16;6.17;75.60
64918;HTU21D;52176;44.858;38.372;2023-03-01T07:01:42;6.27;75.48
64918;HTU21D;52176;44.858;38.372;2023-03-01T07:04:09;6.35;75.34
64918;HTU21D;52176;44.858;38.372;2023-03-01T07:06:35;6.42;75.23
64918;HTU21D;52176;44.858;38.372;2023-03-01T07:09:01;6.53;75.13
64918;HTU21D;52176;44.858;38.372;2023-03-01T07:11:26;6.64;74.92
64918;HTU21D;52176;44.858;38.372;2023-03-01T07:13:52;6.76;74.76
64918;HTU21D;52176;44.858;38.372;2023-03-01T07:16:18;6.88;74.54
64918;HTU21D;52176;44.858;38.372;2023-03-01T07:18:45;6.99;74.37
64918;HTU21D;52176;44.858;38.372;2023-03-01T07:21:12;7.07;74.20
64918;HTU21D;52176;44.858;38.372;2023-03-01T07:23:38;7.13;74.01
64918;HTU21D;52176;44.858;38.372;2023-03-01T07:26:03;7.17;73.90
64918;HTU21D;52176;44.858;38.372;2023-03-01T07:28:29;7.23;73.74
64918;HTU21D;52176;44.858;38.372;2023-03-01T07:31:00;7.29;73.51
64918;HTU21D;52176;44.858;38.372;2023-03-01T07:33:26;7.38;73.32
64918;HTU21D;52176;44.858;38.372;2023-03-01T07:35:59;7.46;73.10
64918;HTU21D;52176;44.858;38.372;2023-03-01T07:38:26;7.50;72.77
64918;HTU21D;52176;44.858;38.372;2023-03-01T07:40:52;7.60;72.60
64918;HTU21D;52176;44.858;38.372;2023-03-01T07:43:18;7.72;72.39
64918;HTU21D;52176;44.858;38.372;2023-03-01T07:45:44;7.83;72.29
64918;HTU21D;52176;44.858;38.372;2023-03-01T07:48:10;7.91;72.16
64918;HTU21D;52176;44.858;38.372;2023-03-01T07:50:36;8.04;71.68
64918;HTU21D;52176;44.858;38.372;2023-03-01T07:53:02;8.19;71.39
64918;HTU21D;52176;44.858;38.372;2023-03-01T07:55:28;8.29;70.93
64918;HTU21D;52176;44.858;38.372;2023-03-01T07:57:53;8.33;70.66
64918;HTU21D;52176;44.858;38.372;2023-03-01T08:00:19;8.37;70.56
64918;HTU21D;52176;44.858;38.372;2023-03-01T08:02:45;8.38;70.16
64918;HTU21D;52176;44.858;38.372;2023-03-01T08:05:10;8.42;70.23
64918;HTU21D;52176;44.858;38.372;2023-03-01T08:07:36;8.45;70.11
64918;HTU21D;52176;44.858;38.372;2023-03-01T08:10:02;8.53;69.90
64918;HTU21D;52176;44.858;38.372;2023-03-01T08:12:28;8.61;69.45
64918;HTU21D;52176;44.858;38.372;2023-03-01T08:14:54;8.64;69.08
64918;HTU21D;52176;44.858;38.372;2023-03-01T08:17:19;8.68;69.07
64918;HTU21D;52176;44.858;38.372;2023-03-01T08:19:45;8.77;68.90
64918;HTU21D;52176;44.858;38.372;2023-03-01T08:22:11;8.80;68.55
64918;HTU21D;52176;44.858;38.372;2023-03-01T08:24:37;8.85;68.39
64918;HTU21D;52176;44.858;38.372;2023-03-01T08:27:03;8.91;68.30
64918;HTU21D;52176;44.858;38.372;2023-03-01T08:29:32;9.02;68.25
64918;HTU21D;52176;44.858;38.372;2023-03-01T08:31:58;9.09;67.76
64918;HTU21D;52176;44.858;38.372;2023-03-01T08:34:24;9.11;67.70
64918;HTU21D;52176;44.858;38.372;2023-03-01T08:36:49;9.20;67.60
64918;HTU21D;52176;44.858;38.372;2023-03-01T08:39:17;9.25;67.36
64918;HTU21D;52176;44.858;38.372;2023-03-01T08:41:44;9.32;66.92
64918;HTU21D;52176;44.858;38.372;2023-03-01T08:44:10;9.40;66.91
64918;HTU21D;52176;44.858;38.372;2023-03-01T08:46:40;9.51;66.72
64918;HTU21D;52176;44.858;38.372;2023-03-01T08:49:08;9.59;66.43
64918;HTU21D;52176;44.858;38.372;2023-03-01T08:51:34;9.66;66.33
64918;HTU21D;52176;44.858;38.372;2023-03-01T08:54:13;9.72;65.84
64918;HTU21D;52176;44.858;38.372;2023-03-01T08:56:40;9.77;65.92
64918;HTU21D;52176;44.858;38.372;2023-03-01T08:59:07;9.86;65.70
64918;HTU21D;52176;44.858;38.372;2023-03-01T09:01:33;9.96;65.70
64918;HTU21D;52176;44.858;38.372;2023-03-01T09:03:59;10.18;65.17
64918;HTU21D;52176;44.858;38.372;2023-03-01T09:06:25;10.35;64.73
64918;HTU21D;52176;44.858;38.372;2023-03-01T09:08:51;10.46;64.53
64918;HTU21D;52176;44.858;38.372;2023-03-01T09:11:20;10.53;64.07
64918;HTU21D;52176;44.858;38.372;2023-03-01T09:13:47;10.53;63.46
64918;HTU21D;52176;44.858;38.372;2023-03-01T09:16:15;10.49;63.45
64918;HTU21D;52176;44.858;38.372;2023-03-01T09:18:43;10.45;63.27
64918;HTU21D;52176;44.858;38.372;2023-03-01T09:21:14;10.45;62.92
64918;HTU21D;52176;44.858;38.372;2023-03-01T09:23:43;10.50;62.57
64918;HTU21D;52176;44.858;38.372;2023-03-01T09:26:12;10.60;62.31
64918;HTU21D;52176;44.858;38.372;2023-03-01T09:28:39;10.67;62.12
64918;HTU21D;52176;44.858;38.372;2023-03-01T09:31:06;10.73;61.88
64918;HTU21D;52176;44.858;38.372;2023-03-01T09:33:33;10.79;61.70
64918;HTU21D;52176;44.858;38.372;2023-03-01T09:36:04;10.83;61.31
64918;HTU21D;52176;44.858;38.372;2023-03-01T09:38:31;10.84;60.87
64918;HTU21D;52176;44.858;38.372;2023-03-01T09:40:57;10.84;60.67
64918;HTU21D;52176;44.858;38.372;2023-03-01T09:46:04;10.92;60.49
64918;HTU21D;52176;44.858;38.372;2023-03-01T09:48:38;10.99;60.41
64918;HTU21D;52176;44.858;38.372;2023-03-01T09:51:17;11.10;59.97
64918;HTU21D;52176;44.858;38.372;2023-03-01T09:53:44;11.18;59.77
64918;HTU21D;52176;44.858;38.372;2023-03-01T09:58:53;11.30;59.34
64918;HTU21D;52176;44.858;38.372;2023-03-01T10:01:31;11.36;59.32
64918;HTU21D;52176;44.858;38.372;2023-03-01T10:04:23;11.41;59.11
64918;HTU21D;52176;44.858;38.372;2023-03-01T10:09:42;11.49;58.87
64918;HTU21D;52176;44.858;38.372;2023-03-01T10:12:11;11.53;58.47
64918;HTU21D;52176;44.858;38.372;2023-03-01T10:17:55;11.59;58.09
64918;HTU21D;52176;44.858;38.372;2023-03-01T10:20:28;11.69;57.95
64918;HTU21D;52176;44.858;38.372;2023-03-01T10:22:55;11.90;58.15
64918;HTU21D;52176;44.858;38.372;2023-03-01T10:31:19;12.05;57.32
64918;HTU21D;52176;44.858;38.372;2023-03-01T10:33:45;11.89;57.46
64918;HTU21D;52176;44.858;38.372;2023-03-01T10:36:13;11.74;57.35
64918;HTU21D;52176;44.858;38.372;2023-03-01T10:38:54;11.60;56.36
64918;HTU21D;52176;44.858;38.372;2023-03-01T10:41:21;11.54;57.65
64918;HTU21D;52176;44.858;38.372;2023-03-01T10:43:54;11.57;57.29
64918;HTU21D;52176;44.858;38.372;2023-03-01T10:46:33;11.54;57.00
64918;HTU21D;52176;44.858;38.372;2023-03-01T10:51:42;11.47;57.06
64918;HTU21D;52176;44.858;38.372;2023-03-01T10:56:51;11.66;57.43
64918;HTU21D;52176;44.858;38.372;2023-03-01T10:59:32;11.81;56.71
64918;HTU21D;52176;44.858;38.372;2023-03-01T11:02:20;11.89;56.57
64918;HTU21D;52176;44.858;38.372;2023-03-01T11:05:17;11.99;56.07
64918;HTU21D;52176;44.858;38.372;2023-03-01T11:07:53;12.02;56.12
64918;HTU21D;52176;44.858;38.372;2023-03-01T11:10:22;12.06;55.84
64918;HTU21D;52176;44.858;38.372;2023-03-01T11:12:50;12.00;55.60
64918;HTU21D;52176;44.858;38.372;2023-03-01T11:15:23;11.93;55.71
64918;HTU21D;52176;44.858;38.372;2023-03-01T11:17:49;11.93;55.76
64918;HTU21D;52176;44.858;38.372;2023-03-01T11:20:26;11.90;55.46
64918;HTU21D;52176;44.858;38.372;2023-03-01T11:23:09;11.82;55.49
64918;HTU21D;52176;44.858;38.372;2023-03-01T11:25:39;11.69;55.65
64918;HTU21D;52176;44.858;38.372;2023-03-01T11:28:10;11.54;55.61
64918;HTU21D;52176;44.858;38.372;2023-03-01T11:31:01;11.44;55.90
64918;HTU21D;52176;44.858;38.372;2023-03-01T11:33:55;11.34;56.07
64918;HTU21D;52176;44.858;38.372;2023-03-01T11:36:35;11.23;55.97
64918;HTU21D;52176;44.858;38.372;2023-03-01T11:39:31;11.03;55.55
64918;HTU21D;52176;44.858;38.372;2023-03-01T11:42:01;10.85;54.93
64918;HTU21D;52176;44.858;38.372;2023-03-01T11:44:31;10.65;56.25
64918;HTU21D;52176;44.858;38.372;2023-03-01T11:52:40;10.64;57.11
64918;HTU21D;52176;44.858;38.372;2023-03-01T11:55:33;11.03;56.64
64918;HTU21D;52176;44.858;38.372;2023-03-01T12:03:16;11.79;54.25
64918;HTU21D;52176;44.858;38.372;2023-03-01T12:19:24;11.53;52.66
64918;HTU21D;52176;44.858;38.372;2023-03-01T12:38:50;10.56;52.43
64918;HTU21D;52176;44.858;38.372;2023-03-01T12:42:02;10.38;52.62
64918;HTU21D;52176;44.858;38.372;2023-03-01T12:44:37;10.26;52.69
64918;HTU21D;52176;44.858;38.372;2023-03-01T12:50:20;10.14;52.97
64918;HTU21D;52176;44.858;38.372;2023-03-01T12:52:51;10.10;53.04
64918;HTU21D;52176;44.858;38.372;2023-03-01T12:55:38;10.08;53.24
64918;HTU21D;52176;44.858;38.372;2023-03-01T13:09:23;9.77;53.30
64918;HTU21D;52176;44.858;38.372;2023-03-01T13:11:49;9.71;53.39
64918;HTU21D;52176;44.858;38.372;2023-03-01T13:16:49;9.60;53.09
64918;HTU21D;52176;44.858;38.372;2023-03-01T13:19:26;9.55;52.98
64918;HTU21D;52176;44.858;38.372;2023-03-01T13:21:55;9.52;52.94
64918;HTU21D;52176;44.858;38.372;2023-03-01T13:24:38;9.50;52.82
64918;HTU21D;52176;44.858;38.372;2023-03-01T13:32:23;9.49;52.77
64918;HTU21D;52176;44.858;38.372;2023-03-01T13:37:25;9.46;52.71
64918;HTU21D;52176;44.858;38.372;2023-03-01T13:39:52;9.41;52.53
64918;HTU21D;52176;44.858;38.372;2023-03-01T13:42:39;9.34;52.53
64918;HTU21D;52176;44.858;38.372;2023-03-01T13:47:49;9.12;52.59
64918;HTU21D;52176;44.858;38.372;2023-03-01T13:50:19;9.02;52.76
64918;HTU21D;52176;44.858;38.372;2023-03-01T13:52:53;8.90;52.89
64918;HTU21D;52176;44.858;38.372;2023-03-01T13:55:36;8.79;52.98
64918;HTU21D;52176;44.858;38.372;2023-03-01T13:58:14;8.70;53.15
64918;HTU21D;52176;44.858;38.372;2023-03-01T14:00:41;8.61;53.30
64918;HTU21D;52176;44.858;38.372;2023-03-01T14:03:20;8.51;53.29
64918;HTU21D;52176;44.858;38.372;2023-03-01T14:06:14;8.43;53.48
64918;HTU21D;52176;44.858;38.372;2023-03-01T14:08:41;8.33;53.62
64918;HTU21D;52176;44.858;38.372;2023-03-01T14:19:24;8.08;54.22
64918;HTU21D;52176;44.858;38.372;2023-03-01T14:22:26;7.98;54.39
64918;HTU21D;52176;44.858;38.372;2023-03-01T14:25:00;7.89;54.51
64918;HTU21D;52176;44.858;38.372;2023-03-01T14:27:35;7.81;54.65
64918;HTU21D;52176;44.858;38.372;2023-03-01T14:32:41;7.68;54.88
64918;HTU21D;52176;44.858;38.372;2023-03-01T14:35:40;7.60;55.02
64918;HTU21D;52176;44.858;38.372;2023-03-01T14:38:06;7.49;55.13
64918;HTU21D;52176;44.858;38.372;2023-03-01T14:40:34;7.41;55.26
64918;HTU21D;52176;44.858;38.372;2023-03-01T14:43:02;7.31;55.44
64918;HTU21D;52176;44.858;38.372;2023-03-01T14:45:34;7.20;55.60
64918;HTU21D;52176;44.858;38.372;2023-03-01T14:48:02;7.11;55.79
64918;HTU21D;52176;44.858;38.372;2023-03-01T14:50:31;7.01;55.98
64918;HTU21D;52176;44.858;38.372;2023-03-01T14:53:05;6.90;56.22
64918;HTU21D;52176;44.858;38.372;2023-03-01T14:55:37;6.80;56.39
64918;HTU21D;52176;44.858;38.372;2023-03-01T14:58:13;6.68;56.62
64918;HTU21D;52176;44.858;38.372;2023-03-01T15:00:56;6.57;56.81
64918;HTU21D;52176;44.858;38.372;2023-03-01T15:03:44;6.44;57.04
64918;HTU21D;52176;44.858;38.372;2023-03-01T15:06:11;6.36;57.16
64918;HTU21D;52176;44.858;38.372;2023-03-01T15:08:42;6.27;57.38
64918;HTU21D;52176;44.858;38.372;2023-03-01T15:13:51;6.10;57.67
64918;HTU21D;52176;44.858;38.372;2023-03-01T15:16:32;5.99;57.84
64918;HTU21D;52176;44.858;38.372;2023-03-01T15:18:59;5.89;57.96
64918;HTU21D;52176;44.858;38.372;2023-03-01T15:21:38;5.77;58.18
64918;HTU21D;52176;44.858;38.372;2023-03-01T15:26:59;5.51;58.42
64918;HTU21D;52176;44.858;38.372;2023-03-01T15:29:33;5.37;58.48
64918;HTU21D;52176;44.858;38.372;2023-03-01T15:32:28;5.27;58.53
64918;HTU21D;52176;44.858;38.372;2023-03-01T15:34:52;5.12;58.58
64918;HTU21D;52176;44.858;38.372;2023-03-01T15:37:48;4.97;58.90
64918;HTU21D;52176;44.858;38.372;2023-03-01T15:40:24;4.84;59.06
64918;HTU21D;52176;44.858;38.372;2023-03-01T15:43:06;4.76;59.16
64918;HTU21D;52176;44.858;38.372;2023-03-01T15:45:57;4.63;59.35
64918;HTU21D;52176;44.858;38.372;2023-03-01T15:48:23;4.52;59.41
64918;HTU21D;52176;44.858;38.372;2023-03-01T15:50:57;4.43;59.59
64918;HTU21D;52176;44.858;38.372;2023-03-01T15:53:24;4.37;59.68
64918;HTU21D;52176;44.858;38.372;2023-03-01T15:55:50;4.29;59.79
64918;HTU21D;52176;44.858;38.372;2023-03-01T15:58:19;4.20;59.90
64918;HTU21D;52176;44.858;38.372;2023-03-01T16:00:47;4.13;60.02
64918;HTU21D;52176;44.858;38.372;2023-03-01T16:03:14;4.05;60.12
64918;HTU21D;52176;44.858;38.372;2023-03-01T16:05:48;3.99;60.16
64918;HTU21D;52176;44.858;38.372;2023-03-01T16:08:16;3.91;60.28
64918;HTU21D;52176;44.858;38.372;2023-03-01T16:10:42;3.88;60.38
64918;HTU21D;52176;44.858;38.372;2023-03-01T16:13:14;3.80;60.47
64918;HTU21D;52176;44.858;38.372;2023-03-01T16:15:40;3.77;60.53
64918;HTU21D;52176;44.858;38.372;2023-03-01T16:18:06;3.70;60.62
64918;HTU21D;52176;44.858;38.372;2023-03-01T16:20:36;3.63;60.70
64918;HTU21D;52176;44.858;38.372;2023-03-01T16:23:04;3.58;60.83
64918;HTU21D;52176;44.858;38.372;2023-03-01T16:25:31;3.53;60.91
64918;HTU21D;52176;44.858;38.372;2023-03-01T16:27:58;3.46;60.97
64918;HTU21D;52176;44.858;38.372;2023-03-01T16:30:26;3.41;61.04
64918;HTU21D;52176;44.858;38.372;2023-03-01T16:32:52;3.34;61.10
64918;HTU21D;52176;44.858;38.372;2023-03-01T16:35:20;3.29;61.21
64918;HTU21D;52176;44.858;38.372;2023-03-01T16:37:47;3.23;61.28
64918;HTU21D;52176;44.858;38.372;2023-03-01T16:42:43;3.13;61.43
64918;HTU21D;52176;44.858;38.372;2023-03-01T16:45:10;3.06;61.56
64918;HTU21D;52176;44.858;38.372;2023-03-01T16:47:36;3.02;61.69
64918;HTU21D;52176;44.858;38.372;2023-03-01T16:50:02;2.97;61.72
64918;HTU21D;52176;44.858;38.372;2023-03-01T16:52:28;2.90;61.81
64918;HTU21D;52176;44.858;38.372;2023-03-01T16:54:54;2.82;61.89
64918;HTU21D;52176;44.858;38.372;2023-03-01T16:57:20;2.76;62.04
64918;HTU21D;52176;44.858;38.372;2023-03-01T16:59:46;2.68;62.14
64918;HTU21D;52176;44.858;38.372;2023-03-01T17:02:13;2.60;62.31
64918;HTU21D;52176;44.858;38.372;2023-03-01T17:04:40;2.53;62.38
64918;HTU21D;52176;44.858;38.372;2023-03-01T17:07:06;2.43;62.52
64918;HTU21D;52176;44.858;38.372;2023-03-01T17:09:37;2.35;62.69
64918;HTU21D;52176;44.858;38.372;2023-03-01T17:12:04;2.26;62.76
64918;HTU21D;52176;44.858;38.372;2023-03-01T17:14:30;2.19;62.82
64918;HTU21D;52176;44.858;38.372;2023-03-01T17:16:56;2.10;62.91
64918;HTU21D;52176;44.858;38.372;2023-03-01T17:19:22;2.02;63.03
64918;HTU21D;52176;44.858;38.372;2023-03-01T17:21:48;1.94;63.14
64918;HTU21D;52176;44.858;38.372;2023-03-01T17:24:14;1.87;63.30
64918;HTU21D;52176;44.858;38.372;2023-03-01T17:26:40;1.83;63.42
64918;HTU21D;52176;44.858;38.372;2023-03-01T17:29:06;1.78;63.50